Time;durP1;ratioP1;P1;durP2;ratioP2;P2;SDS_P1;SDS_P2;PMS_P1;PMS_P2;Temp;Humidity;BMP_temperature;BMP_pressure;BME280_temperature;BME280_humidity;BME280_pressure;Samples;Min_cycle;Max_cycle;Signal;HPM_P1;HPM_P2
2022/06/30 00:01:28;;;;;;;;;;;19.70;99.90;;;;;;5030818;28;19929;-79
2022/06/30 00:03:54;;;;;;;;;;;19.80;99.90;;;;;;5045974;28;19942;-80
2022/06/30 00:06:20;;;;;;;;;;;19.80;99.90;;;;;;5013191;28;21168;-79
2022/06/30 00:08:46;;;;;;;;;;;19.70;99.90;;;;;;5006041;28;19971;-80
2022/06/30 00:11:12;;;;;;;;;;;19.50;99.90;;;;;;5029081;28;19928;-79
2022/06/30 00:13:38;;;;;;;;;;;19.30;99.90;;;;;;5018780;28;20076;-79
2022/06/30 00:16:04;;;;;;;;;;;19.30;99.90;;;;;;5039020;28;19928;-79
2022/06/30 00:18:30;;;;;;;;;;;19.30;99.90;;;;;;5028879;28;19943;-79
2022/06/30 00:20:56;;;;;;;;;;;19.30;99.90;;;;;;5052618;28;20459;-79
2022/06/30 00:23:21;;;;;;;;;;;19.20;99.90;;;;;;5026555;28;19975;-80
2022/06/30 00:25:47;;;;;;;;;;;19.10;99.90;;;;;;5039659;28;19940;-79
2022/06/30 00:28:13;;;;;;;;;;;19.10;99.90;;;;;;5021643;28;19935;-79
2022/06/30 00:30:38;;;;;;;;;;;19.10;99.90;;;;;;5036352;28;19989;-79
2022/06/30 00:33:04;;;;;;;;;;;19.10;99.90;;;;;;5036861;28;20504;-79
2022/06/30 00:35:30;;;;;;;;;;;19.00;99.90;;;;;;5015165;28;20019;-79
2022/06/30 00:37:56;;;;;;;;;;;19.00;99.90;;;;;;5020091;28;19978;-79
2022/06/30 00:40:21;;;;;;;;;;;19.00;99.90;;;;;;5039069;28;19927;-79
2022/06/30 00:42:47;;;;;;;;;;;19.00;99.90;;;;;;5019930;28;19963;-79
2022/06/30 00:45:13;;;;;;;;;;;18.90;99.90;;;;;;5016707;28;19935;-79
2022/06/30 00:47:38;;;;;;;;;;;18.90;99.90;;;;;;5023562;28;19963;-79
2022/06/30 00:50:04;;;;;;;;;;;18.80;99.90;;;;;;5022744;28;19939;-79
2022/06/30 00:52:33;;;;;;;;;;;18.80;99.90;;;;;;5019943;28;19951;-79
2022/06/30 00:55:00;;;;;;;;;;;18.80;99.90;;;;;;5033993;28;20042;-79
2022/06/30 00:57:26;;;;;;;;;;;18.70;99.90;;;;;;5013259;28;19929;-79
2022/06/30 00:59:52;;;;;;;;;;;18.80;99.90;;;;;;5033126;28;20929;-79
2022/06/30 01:02:18;;;;;;;;;;;18.60;99.90;;;;;;5034485;28;19928;-79
2022/06/30 01:04:45;;;;;;;;;;;18.60;99.90;;;;;;5015768;28;20002;-79
2022/06/30 01:07:12;;;;;;;;;;;18.60;99.90;;;;;;5035809;28;20812;-80
2022/06/30 01:15:07;;;;;;;;;;;18.50;99.90;;;;;;5019617;28;19951;-78
2022/06/30 01:17:33;;;;;;;;;;;18.50;99.90;;;;;;5023080;28;20404;-79
2022/06/30 01:20:00;;;;;;;;;;;18.40;99.90;;;;;;5013470;28;19928;-79
2022/06/30 01:22:25;;;;;;;;;;;18.40;99.90;;;;;;5016046;28;19943;-79
2022/06/30 01:24:51;;;;;;;;;;;18.30;99.90;;;;;;5014726;28;19928;-79
2022/06/30 01:27:17;;;;;;;;;;;18.40;99.90;;;;;;5013013;28;19931;-79
2022/06/30 01:29:43;;;;;;;;;;;18.50;99.90;;;;;;5015190;28;19928;-79
2022/06/30 01:32:09;;;;;;;;;;;18.50;99.90;;;;;;5032876;28;20102;-79
2022/06/30 01:34:34;;;;;;;;;;;18.40;99.90;;;;;;5019455;28;20497;-78
2022/06/30 01:37:00;;;;;;;;;;;18.30;99.90;;;;;;5018155;28;20360;-79
2022/06/30 01:39:26;;;;;;;;;;;18.40;99.90;;;;;;5043236;28;19928;-79
2022/06/30 01:41:52;;;;;;;;;;;18.20;99.90;;;;;;5041923;28;20027;-79
2022/06/30 01:44:17;;;;;;;;;;;18.30;99.90;;;;;;5045225;28;19932;-79
2022/06/30 01:46:46;;;;;;;;;;;18.20;99.90;;;;;;5038410;28;19928;-79
2022/06/30 01:49:12;;;;;;;;;;;18.10;99.90;;;;;;5014288;28;19932;-79
2022/06/30 01:51:38;;;;;;;;;;;18.10;99.90;;;;;;5019011;28;19932;-79
2022/06/30 01:54:04;;;;;;;;;;;18.20;99.90;;;;;;5002691;28;19932;-79
2022/06/30 01:56:29;;;;;;;;;;;18.10;99.90;;;;;;5016033;28;19939;-79
2022/06/30 01:58:55;;;;;;;;;;;18.20;99.90;;;;;;5047115;28;20023;-79
2022/06/30 02:01:21;;;;;;;;;;;18.00;99.90;;;;;;5039903;28;19928;-79
2022/06/30 02:03:46;;;;;;;;;;;17.90;99.90;;;;;;4993764;28;20342;-79
2022/06/30 02:06:12;;;;;;;;;;;17.90;99.90;;;;;;5020475;28;19944;-80
2022/06/30 02:08:38;;;;;;;;;;;17.90;99.90;;;;;;5023062;28;19976;-79
2022/06/30 02:11:03;;;;;;;;;;;17.90;99.90;;;;;;5045101;28;19927;-79
2022/06/30 02:13:29;;;;;;;;;;;17.90;99.90;;;;;;5046778;28;19929;-79
2022/06/30 02:15:55;;;;;;;;;;;18.00;99.90;;;;;;5023929;28;19928;-79
2022/06/30 02:18:21;;;;;;;;;;;18.00;99.90;;;;;;5042586;28;19947;-79
2022/06/30 02:20:47;;;;;;;;;;;18.10;99.90;;;;;;5043288;28;19927;-79
2022/06/30 02:23:13;;;;;;;;;;;18.00;99.90;;;;;;5044826;28;19928;-79
2022/06/30 02:25:39;;;;;;;;;;;18.00;99.90;;;;;;5024730;28;19939;-79
2022/06/30 02:28:05;;;;;;;;;;;18.00;99.90;;;;;;5046454;28;19924;-78
2022/06/30 02:30:32;;;;;;;;;;;18.00;99.90;;;;;;5051915;28;19977;-80
2022/06/30 02:32:58;;;;;;;;;;;18.00;99.90;;;;;;5049989;28;20791;-79
2022/06/30 02:35:24;;;;;;;;;;;18.00;99.90;;;;;;5039257;28;20034;-79
2022/06/30 02:37:50;;;;;;;;;;;18.00;99.90;;;;;;5039752;28;20660;-79
2022/06/30 02:40:16;;;;;;;;;;;17.90;99.90;;;;;;5021571;28;19959;-79
2022/06/30 02:42:42;;;;;;;;;;;17.80;99.90;;;;;;5040166;28;20043;-79
2022/06/30 02:45:08;;;;;;;;;;;17.80;99.90;;;;;;5021347;28;19939;-80
2022/06/30 02:47:38;;;;;;;;;;;17.80;99.90;;;;;;5023019;28;19929;-79
2022/06/30 02:50:05;;;;;;;;;;;17.80;99.90;;;;;;5041064;28;19928;-79
2022/06/30 02:52:32;;;;;;;;;;;17.60;99.90;;;;;;5045374;28;20396;-80
2022/06/30 02:54:58;;;;;;;;;;;17.70;99.90;;;;;;5043033;28;19936;-80
2022/06/30 02:57:24;;;;;;;;;;;17.80;99.90;;;;;;5040278;28;19928;-80
2022/06/30 02:59:50;;;;;;;;;;;17.70;99.90;;;;;;5019515;28;19936;-80
2022/06/30 03:02:16;;;;;;;;;;;17.70;99.90;;;;;;5043280;28;20085;-79
2022/06/30 03:04:42;;;;;;;;;;;17.60;99.90;;;;;;5043808;28;19939;-80
2022/06/30 03:07:07;;;;;;;;;;;17.70;99.90;;;;;;5026586;28;20746;-80
2022/06/30 03:09:33;;;;;;;;;;;17.80;99.90;;;;;;5020790;28;20308;-80
2022/06/30 03:11:59;;;;;;;;;;;17.60;99.90;;;;;;5026510;28;20010;-80
2022/06/30 03:14:25;;;;;;;;;;;17.60;99.90;;;;;;5026297;28;20382;-79
2022/06/30 03:16:51;;;;;;;;;;;17.70;99.90;;;;;;5030866;28;19933;-79
2022/06/30 03:19:16;;;;;;;;;;;17.60;99.90;;;;;;5050096;28;20612;-79
2022/06/30 03:21:42;;;;;;;;;;;17.60;99.90;;;;;;5045921;28;20033;-79
2022/06/30 03:24:08;;;;;;;;;;;17.60;99.90;;;;;;5043732;28;19985;-79
2022/06/30 03:26:36;;;;;;;;;;;17.60;99.90;;;;;;5023331;28;19970;-80
2022/06/30 03:29:02;;;;;;;;;;;17.50;99.90;;;;;;5043331;28;20043;-79
2022/06/30 03:31:28;;;;;;;;;;;17.40;99.90;;;;;;5020809;28;20392;-79
2022/06/30 03:33:54;;;;;;;;;;;17.40;99.90;;;;;;5027699;28;20396;-80
2022/06/30 03:36:19;;;;;;;;;;;17.50;99.90;;;;;;5025612;28;19971;-79
2022/06/30 03:38:45;;;;;;;;;;;17.50;99.90;;;;;;5040041;28;20043;-79
2022/06/30 03:41:11;;;;;;;;;;;17.40;99.90;;;;;;5040095;28;19974;-79
2022/06/30 03:43:36;;;;;;;;;;;17.50;99.90;;;;;;5045171;28;19982;-79
2022/06/30 03:46:02;;;;;;;;;;;17.50;99.90;;;;;;5043693;28;19945;-80
2022/06/30 03:48:28;;;;;;;;;;;17.60;99.90;;;;;;5037248;28;20497;-79
2022/06/30 03:50:53;;;;;;;;;;;17.60;99.90;;;;;;5040391;28;20538;-79
2022/06/30 03:53:19;;;;;;;;;;;17.70;99.90;;;;;;5042234;28;19928;-80
2022/06/30 03:55:45;;;;;;;;;;;17.70;99.90;;;;;;5043719;28;19936;-79
2022/06/30 03:58:10;;;;;;;;;;;17.80;99.90;;;;;;5043798;28;20761;-80
2022/06/30 04:00:36;;;;;;;;;;;17.90;99.90;;;;;;5028296;28;20465;-80
2022/06/30 04:03:03;;;;;;;;;;;17.90;99.90;;;;;;5047307;28;19928;-80
2022/06/30 04:05:29;;;;;;;;;;;17.90;99.90;;;;;;5047234;28;20427;-79
2022/06/30 04:07:55;;;;;;;;;;;17.90;99.90;;;;;;5048313;28;20019;-80
2022/06/30 04:10:20;;;;;;;;;;;17.90;99.90;;;;;;5038607;28;19928;-79
2022/06/30 04:12:46;;;;;;;;;;;17.80;99.90;;;;;;5047600;28;20026;-79
2022/06/30 04:15:12;;;;;;;;;;;17.80;99.90;;;;;;5045871;28;19935;-79
2022/06/30 04:17:38;;;;;;;;;;;17.90;99.90;;;;;;5043897;28;19936;-79
2022/06/30 04:20:05;;;;;;;;;;;17.80;99.90;;;;;;5024592;28;19928;-79
2022/06/30 04:22:31;;;;;;;;;;;17.90;99.90;;;;;;5040573;28;19986;-80
2022/06/30 04:24:56;;;;;;;;;;;18.00;99.90;;;;;;5044815;28;20370;-79
2022/06/30 04:27:22;;;;;;;;;;;18.10;99.90;;;;;;5046598;28;19935;-79
2022/06/30 04:29:48;;;;;;;;;;;18.00;99.90;;;;;;5039520;28;20380;-79
2022/06/30 04:34:58;;;;;;;;;;;18.10;99.90;;;;;;5057831;28;19932;-79
2022/06/30 04:37:24;;;;;;;;;;;18.10;99.90;;;;;;5001941;28;19928;-79
2022/06/30 04:41:23;;;;;;;;;;;18.10;99.90;;;;;;5033999;28;20512;-79
2022/06/30 04:42:37;;;;;;;;;;;18.20;99.90;;;;;;5036325;28;20307;-79
2022/06/30 04:45:03;;;;;;;;;;;18.50;99.90;;;;;;5054936;28;19933;-79
2022/06/30 04:47:28;;;;;;;;;;;19.70;99.90;;;;;;5053807;28;20006;-79
2022/06/30 04:49:54;;;;;;;;;;;20.20;99.90;;;;;;5036235;28;20031;-80
2022/06/30 04:52:20;;;;;;;;;;;20.40;99.90;;;;;;5047310;28;20311;-79
2022/06/30 04:54:46;;;;;;;;;;;19.80;99.90;;;;;;5049648;28;20043;-79
2022/06/30 04:57:11;;;;;;;;;;;19.80;99.90;;;;;;5053306;28;19963;-79
2022/06/30 04:59:37;;;;;;;;;;;20.40;99.90;;;;;;5053345;28;19932;-79
2022/06/30 05:02:03;;;;;;;;;;;21.40;99.90;;;;;;5054723;28;19978;-79
2022/06/30 05:04:28;;;;;;;;;;;21.50;99.90;;;;;;5049496;28;20421;-80
2022/06/30 05:06:54;;;;;;;;;;;20.00;99.90;;;;;;5035953;28;19933;-79
2022/06/30 05:09:20;;;;;;;;;;;21.70;99.90;;;;;;5047263;28;19939;-79
2022/06/30 05:11:45;;;;;;;;;;;22.00;99.90;;;;;;5051086;28;19935;-80
2022/06/30 05:14:11;;;;;;;;;;;22.30;99.90;;;;;;5022718;28;19928;-80
2022/06/30 05:16:37;;;;;;;;;;;22.20;99.90;;;;;;5047357;28;19937;-80
2022/06/30 05:19:02;;;;;;;;;;;22.70;99.90;;;;;;5043399;28;19928;-80
2022/06/30 05:21:29;;;;;;;;;;;23.00;99.90;;;;;;5027481;28;20958;-77
2022/06/30 05:26:38;;;;;;;;;;;24.70;99.90;;;;;;5053800;28;20710;-79
2022/06/30 05:29:04;;;;;;;;;;;24.40;99.90;;;;;;5059670;28;19928;-81
2022/06/30 05:31:30;;;;;;;;;;;24.10;99.90;;;;;;5032536;28;19935;-80
2022/06/30 05:33:56;;;;;;;;;;;23.50;99.90;;;;;;5058017;28;20301;-80
2022/06/30 05:36:22;;;;;;;;;;;24.60;99.90;;;;;;5054665;28;20771;-79
2022/06/30 05:38:47;;;;;;;;;;;25.00;99.90;;;;;;5030602;28;19932;-79
2022/06/30 05:41:13;;;;;;;;;;;25.90;99.90;;;;;;5041735;28;19981;-80
2022/06/30 05:43:39;;;;;;;;;;;23.60;99.90;;;;;;5042685;28;20393;-80
2022/06/30 05:46:04;;;;;;;;;;;23.90;99.90;;;;;;5044144;28;20381;-80
2022/06/30 05:48:30;;;;;;;;;;;25.40;99.90;;;;;;5042523;28;19928;-81
2022/06/30 05:50:56;;;;;;;;;;;24.50;99.90;;;;;;5049078;28;20767;-79
2022/06/30 05:53:22;;;;;;;;;;;23.70;99.90;;;;;;5041203;28;20052;-79
2022/06/30 05:55:47;;;;;;;;;;;22.30;99.90;;;;;;5046160;28;20447;-80
2022/06/30 05:58:14;;;;;;;;;;;22.50;99.90;;;;;;5046167;28;19988;-79
2022/06/30 06:00:40;;;;;;;;;;;21.50;99.90;;;;;;5044115;28;19936;-80
2022/06/30 06:03:06;;;;;;;;;;;22.20;99.90;;;;;;5044073;28;19928;-82
2022/06/30 06:05:31;;;;;;;;;;;21.60;99.90;;;;;;5022628;28;19932;-78
2022/06/30 06:08:03;;;;;;;;;;;22.00;99.90;;;;;;5026742;28;19928;-79
2022/06/30 06:10:29;;;;;;;;;;;22.20;99.90;;;;;;5036211;28;19935;-80
2022/06/30 06:12:54;;;;;;;;;;;22.20;99.90;;;;;;5043379;28;19928;-79
2022/06/30 06:15:20;;;;;;;;;;;21.80;99.90;;;;;;5044069;28;20023;-78
2022/06/30 06:17:47;;;;;;;;;;;22.50;99.90;;;;;;5058528;28;19978;-80
2022/06/30 06:20:15;;;;;;;;;;;22.50;99.90;;;;;;5039995;28;19997;-79
2022/06/30 06:22:41;;;;;;;;;;;22.80;99.90;;;;;;5031214;28;19936;-79
2022/06/30 06:25:07;;;;;;;;;;;22.70;99.90;;;;;;5056329;28;19935;-78
2022/06/30 06:27:33;;;;;;;;;;;22.30;99.90;;;;;;5036500;28;19928;-79
2022/06/30 06:29:59;;;;;;;;;;;23.30;99.90;;;;;;5056305;28;20396;-78
2022/06/30 06:32:25;;;;;;;;;;;23.60;99.90;;;;;;5057554;28;20022;-80
2022/06/30 06:34:50;;;;;;;;;;;22.70;99.90;;;;;;5032131;28;20293;-77
2022/06/30 06:37:16;;;;;;;;;;;23.50;99.90;;;;;;5052984;28;19979;-78
2022/06/30 06:39:42;;;;;;;;;;;23.90;99.90;;;;;;5059434;28;20133;-80
2022/06/30 06:42:07;;;;;;;;;;;22.90;99.90;;;;;;5054680;28;19928;-80
2022/06/30 06:44:33;;;;;;;;;;;22.90;99.90;;;;;;5039006;28;19931;-79
2022/06/30 06:46:59;;;;;;;;;;;23.10;99.90;;;;;;5065143;28;19935;-80
2022/06/30 06:49:24;;;;;;;;;;;23.90;99.90;;;;;;5061888;28;19934;-79
2022/06/30 06:51:50;;;;;;;;;;;23.50;99.90;;;;;;5064270;28;19928;-79
2022/06/30 06:54:16;;;;;;;;;;;23.90;99.90;;;;;;5066145;28;20366;-80
2022/06/30 06:56:41;;;;;;;;;;;23.90;99.90;;;;;;5058838;28;20035;-79
2022/06/30 06:59:07;;;;;;;;;;;24.60;99.90;;;;;;5065977;28;19928;-79
2022/06/30 07:01:33;;;;;;;;;;;25.10;99.90;;;;;;5065637;28;19928;-79
2022/06/30 07:04:01;;;;;;;;;;;25.00;99.90;;;;;;5064848;28;19929;-79
2022/06/30 07:06:27;;;;;;;;;;;24.70;99.90;;;;;;5045460;28;20405;-80
2022/06/30 07:08:52;;;;;;;;;;;25.30;99.90;;;;;;5040871;28;19953;-80
2022/06/30 07:11:18;;;;;;;;;;;25.00;99.90;;;;;;5066656;28;20694;-80
2022/06/30 07:13:44;;;;;;;;;;;24.20;99.90;;;;;;5059999;28;19935;-80
2022/06/30 07:16:09;;;;;;;;;;;24.80;99.90;;;;;;5042704;28;19924;-80
2022/06/30 07:18:35;;;;;;;;;;;25.80;99.90;;;;;;5060165;28;20641;-79
2022/06/30 07:21:01;;;;;;;;;;;25.30;99.90;;;;;;5062484;28;20400;-80
2022/06/30 07:23:27;;;;;;;;;;;25.20;99.90;;;;;;5043963;28;20878;-79
2022/06/30 07:25:52;;;;;;;;;;;26.00;99.90;;;;;;5062098;28;19928;-80
2022/06/30 07:28:18;;;;;;;;;;;26.00;99.90;;;;;;5062684;28;20062;-79
2022/06/30 07:30:44;;;;;;;;;;;24.80;99.90;;;;;;5041126;28;20297;-80
2022/06/30 07:33:10;;;;;;;;;;;25.70;99.90;;;;;;5063047;28;19955;-79
2022/06/30 07:35:35;;;;;;;;;;;26.40;99.90;;;;;;5063931;28;19954;-81
2022/06/30 07:38:01;;;;;;;;;;;25.80;99.90;;;;;;5064318;28;20051;-79
2022/06/30 07:40:27;;;;;;;;;;;26.30;99.90;;;;;;5008701;28;20655;-81
2022/06/30 07:42:53;;;;;;;;;;;25.90;99.90;;;;;;5045862;28;19928;-81
2022/06/30 07:45:21;;;;;;;;;;;26.70;99.90;;;;;;5066726;28;20436;-81
2022/06/30 07:47:48;;;;;;;;;;;24.90;99.90;;;;;;5060540;28;19928;-81
2022/06/30 07:50:14;;;;;;;;;;;25.10;99.90;;;;;;5063994;28;19928;-80
2022/06/30 07:52:40;;;;;;;;;;;25.10;99.90;;;;;;5064321;28;19944;-81
2022/06/30 07:55:06;;;;;;;;;;;25.20;99.90;;;;;;5061789;28;19950;-80
2022/06/30 07:57:35;;;;;;;;;;;25.80;99.90;;;;;;5059305;28;19935;-81
2022/06/30 08:00:01;;;;;;;;;;;26.40;99.90;;;;;;5065729;28;19928;-80
2022/06/30 08:02:27;;;;;;;;;;;25.90;99.90;;;;;;5060921;28;19936;-80
2022/06/30 08:04:52;;;;;;;;;;;27.00;99.90;;;;;;5035346;28;19932;-81
2022/06/30 08:07:18;;;;;;;;;;;27.30;99.90;;;;;;5053355;28;19928;-81
2022/06/30 08:09:44;;;;;;;;;;;26.50;99.90;;;;;;5052755;28;19935;-80
2022/06/30 08:12:10;;;;;;;;;;;25.60;99.90;;;;;;5054225;28;20389;-80
2022/06/30 08:14:36;;;;;;;;;;;26.30;99.90;;;;;;5044275;28;19928;-80
2022/06/30 08:17:02;;;;;;;;;;;25.50;99.90;;;;;;5043223;28;19935;-80
2022/06/30 08:19:28;;;;;;;;;;;25.40;99.90;;;;;;5037410;28;19932;-80
2022/06/30 08:21:53;;;;;;;;;;;26.30;99.90;;;;;;5065738;28;20046;-80
2022/06/30 08:24:19;;;;;;;;;;;26.00;99.90;;;;;;5059997;28;19978;-80
2022/06/30 08:26:45;;;;;;;;;;;26.40;99.90;;;;;;5049624;28;19932;-79
2022/06/30 08:29:12;;;;;;;;;;;27.00;99.90;;;;;;5050897;28;19933;-80
2022/06/30 08:31:38;;;;;;;;;;;27.60;99.90;;;;;;5054708;28;20768;-81
2022/06/30 08:34:04;;;;;;;;;;;27.20;99.90;;;;;;5058843;28;19981;-79
2022/06/30 08:36:30;;;;;;;;;;;27.60;99.90;;;;;;5037628;28;19928;-79
2022/06/30 08:38:56;;;;;;;;;;;28.00;99.90;;;;;;5061419;28;19928;-80
2022/06/30 08:44:06;;;;;;;;;;;27.70;99.90;;;;;;5055651;28;20050;-80
2022/06/30 08:46:33;;;;;;;;;;;27.60;99.90;;;;;;5035713;28;20300;-81
2022/06/30 08:48:58;;;;;;;;;;;27.30;99.90;;;;;;5062949;28;19947;-82
2022/06/30 08:51:27;;;;;;;;;;;28.10;99.90;;;;;;5057847;28;20062;-80
2022/06/30 08:53:56;;;;;;;;;;;27.50;99.90;;;;;;5058301;28;19960;-80
2022/06/30 08:56:22;;;;;;;;;;;28.50;99.90;;;;;;5040015;28;19997;-80
2022/06/30 08:58:49;;;;;;;;;;;27.50;99.90;;;;;;5059497;28;20242;-80
2022/06/30 09:01:14;;;;;;;;;;;27.90;99.90;;;;;;5060167;28;19944;-80
2022/06/30 09:03:41;;;;;;;;;;;28.80;99.90;;;;;;5049711;28;19928;-80
2022/06/30 09:06:06;;;;;;;;;;;29.20;99.90;;;;;;5055024;28;19975;-79
2022/06/30 09:08:32;;;;;;;;;;;28.80;99.90;;;;;;5055825;28;20122;-81
2022/06/30 09:10:58;;;;;;;;;;;29.20;99.90;;;;;;5051113;28;19957;-80
2022/06/30 09:13:24;;;;;;;;;;;29.50;99.90;;;;;;5054640;28;20047;-81
2022/06/30 09:15:50;;;;;;;;;;;29.60;99.90;;;;;;5050175;28;19989;-81
2022/06/30 09:18:26;;;;;;;;;;;28.60;99.90;;;;;;5057267;28;20332;-80
2022/06/30 09:20:52;;;;;;;;;;;28.70;99.90;;;;;;5051232;28;20052;-81
2022/06/30 09:23:19;;;;;;;;;;;28.50;99.90;;;;;;5053031;28;19932;-82
2022/06/30 09:25:49;;;;;;;;;;;29.40;99.90;;;;;;5053230;28;19928;-78
2022/06/30 09:28:15;;;;;;;;;;;29.70;99.90;;;;;;5050298;28;19928;-80
2022/06/30 09:30:40;;;;;;;;;;;30.20;99.90;;;;;;5037335;28;19925;-81
2022/06/30 09:33:07;;;;;;;;;;;30.10;99.90;;;;;;5055124;28;20002;-80
2022/06/30 09:35:32;;;;;;;;;;;30.40;99.90;;;;;;5053270;28;19933;-81
2022/06/30 09:38:02;;;;;;;;;;;30.50;99.90;;;;;;5036267;28;20298;-81
2022/06/30 09:40:29;;;;;;;;;;;30.30;99.90;;;;;;5055139;28;19932;-80
2022/06/30 09:42:55;;;;;;;;;;;29.70;99.90;;;;;;5052292;28;20274;-83
2022/06/30 09:45:39;;;;;;;;;;;30.30;99.90;;;;;;5058430;28;19936;-81
2022/06/30 09:48:06;;;;;;;;;;;30.60;99.90;;;;;;5061378;28;20520;-82
2022/06/30 09:50:32;;;;;;;;;;;30.70;99.90;;;;;;5059132;28;20372;-82
2022/06/30 09:53:11;;;;;;;;;;;30.90;99.90;;;;;;5035955;28;19928;-81
2022/06/30 09:55:38;;;;;;;;;;;31.00;99.90;;;;;;5056976;28;20400;-81
2022/06/30 09:58:04;;;;;;;;;;;31.10;99.90;;;;;;5056446;28;20296;-81
2022/06/30 10:00:30;;;;;;;;;;;31.20;99.90;;;;;;5055125;28;19928;-83
2022/06/30 10:03:02;;;;;;;;;;;31.20;99.90;;;;;;5060855;28;20442;-80
2022/06/30 10:05:28;;;;;;;;;;;31.20;99.90;;;;;;5055257;28;20148;-82
2022/06/30 10:07:54;;;;;;;;;;;31.40;99.90;;;;;;5051931;28;19928;-83
2022/06/30 10:10:19;;;;;;;;;;;31.40;99.90;;;;;;5030947;28;19932;-81
2022/06/30 10:12:45;;;;;;;;;;;31.40;99.90;;;;;;5056546;28;19928;-81
2022/06/30 10:15:15;;;;;;;;;;;31.60;99.90;;;;;;5061935;28;19928;-81
2022/06/30 10:17:47;;;;;;;;;;;31.20;99.90;;;;;;5057508;28;20621;-81
2022/06/30 10:20:14;;;;;;;;;;;31.50;99.90;;;;;;5039260;28;19979;-80
2022/06/30 10:22:40;;;;;;;;;;;31.70;99.90;;;;;;5058941;28;19935;-80
2022/06/30 10:25:08;;;;;;;;;;;31.70;99.90;;;;;;5060951;28;20083;-81
2022/06/30 10:27:33;;;;;;;;;;;32.00;99.90;;;;;;5033966;28;20373;-82
2022/06/30 10:30:15;;;;;;;;;;;31.80;99.90;;;;;;5043269;28;19935;-81
2022/06/30 10:32:53;;;;;;;;;;;32.00;99.90;;;;;;5058560;28;19928;-81
2022/06/30 10:35:38;;;;;;;;;;;32.10;99.90;;;;;;5043886;28;19935;-82
2022/06/30 10:38:13;;;;;;;;;;;30.70;99.90;;;;;;5059196;28;19928;-81
2022/06/30 10:40:57;;;;;;;;;;;29.70;99.90;;;;;;5052954;28;19979;-81
2022/06/30 10:43:23;;;;;;;;;;;30.30;99.90;;;;;;5025356;28;19924;-80
2022/06/30 10:45:59;;;;;;;;;;;30.80;99.90;;;;;;5056818;28;20733;-81
2022/06/30 10:48:27;;;;;;;;;;;30.00;99.90;;;;;;5040963;28;20094;-81
2022/06/30 10:50:54;;;;;;;;;;;29.70;99.90;;;;;;5059254;28;19928;-81
2022/06/30 10:53:40;;;;;;;;;;;30.30;99.90;;;;;;5064994;28;19927;-80
2022/06/30 10:56:06;;;;;;;;;;;30.70;99.90;;;;;;5010838;28;20014;-81
2022/06/30 10:58:32;;;;;;;;;;;31.30;99.90;;;;;;5053648;28;20456;-81
2022/06/30 11:01:01;;;;;;;;;;;31.50;99.90;;;;;;5056627;28;19927;-82
2022/06/30 11:03:30;;;;;;;;;;;31.60;99.90;;;;;;5034411;28;19967;-78
2022/06/30 11:06:04;;;;;;;;;;;31.90;99.90;;;;;;5055849;28;19935;-81
2022/06/30 11:08:36;;;;;;;;;;;31.50;99.90;;;;;;5057796;28;19936;-81
2022/06/30 11:11:20;;;;;;;;;;;32.00;99.90;;;;;;5055558;28;20671;-81
2022/06/30 11:13:50;;;;;;;;;;;32.30;99.90;;;;;;5040620;28;20022;-81
2022/06/30 11:16:16;;;;;;;;;;;31.80;99.90;;;;;;5041604;28;19984;-82
2022/06/30 11:18:42;;;;;;;;;;;32.00;99.90;;;;;;5038255;28;20263;-81
2022/06/30 11:21:08;;;;;;;;;;;31.70;99.90;;;;;;5060714;28;20442;-82
2022/06/30 11:23:41;;;;;;;;;;;31.10;99.00;;;;;;5042254;28;19950;-81
2022/06/30 11:28:53;;;;;;;;;;;31.80;99.90;;;;;;5061074;28;19928;-81
2022/06/30 11:31:22;;;;;;;;;;;31.50;99.90;;;;;;5056950;28;20703;-82
2022/06/30 11:33:55;;;;;;;;;;;31.50;99.90;;;;;;5043637;28;20329;-81
2022/06/30 11:36:21;;;;;;;;;;;30.90;99.90;;;;;;5058659;28;19928;-82
2022/06/30 11:38:54;;;;;;;;;;;30.90;99.90;;;;;;5036599;28;19928;-82
2022/06/30 11:44:13;;;;;;;;;;;31.60;99.90;;;;;;5062738;28;19928;-81
2022/06/30 11:46:58;;;;;;;;;;;31.90;99.90;;;;;;5061522;28;19932;-79
2022/06/30 11:49:40;;;;;;;;;;;32.20;99.90;;;;;;5065972;28;19935;-81
2022/06/30 11:52:20;;;;;;;;;;;32.10;97.20;;;;;;5019395;28;19947;-81
2022/06/30 11:54:47;;;;;;;;;;;32.30;98.40;;;;;;5061114;28;19931;-81
2022/06/30 11:57:13;;;;;;;;;;;31.60;98.90;;;;;;5042822;28;19929;-81
2022/06/30 11:59:43;;;;;;;;;;;32.20;99.90;;;;;;5060021;28;19939;-82
2022/06/30 12:02:08;;;;;;;;;;;32.30;99.90;;;;;;5021473;28;19974;-82
2022/06/30 12:04:37;;;;;;;;;;;31.90;99.00;;;;;;5039354;28;20022;-83
2022/06/30 12:07:06;;;;;;;;;;;32.00;99.90;;;;;;5045209;28;19938;-82
2022/06/30 12:09:32;;;;;;;;;;;32.30;99.90;;;;;;5045062;28;19935;-79
2022/06/30 12:11:59;;;;;;;;;;;32.30;99.20;;;;;;5061548;28;19928;-81
2022/06/30 12:14:25;;;;;;;;;;;32.40;98.90;;;;;;5061198;28;19943;-82
2022/06/30 12:16:54;;;;;;;;;;;32.10;98.50;;;;;;5062703;28;19981;-80
2022/06/30 12:19:20;;;;;;;;;;;31.90;97.30;;;;;;5034064;28;19974;-82
2022/06/30 12:21:46;;;;;;;;;;;32.30;99.10;;;;;;5045478;28;19971;-83
2022/06/30 12:24:12;;;;;;;;;;;32.40;97.70;;;;;;5040235;28;20006;-81
2022/06/30 12:26:37;;;;;;;;;;;31.60;95.80;;;;;;5061785;28;19986;-82
2022/06/30 12:29:10;;;;;;;;;;;32.10;99.10;;;;;;5036298;28;19928;-82
2022/06/30 12:31:36;;;;;;;;;;;32.60;98.90;;;;;;5053886;28;20572;-82
2022/06/30 12:34:01;;;;;;;;;;;32.70;97.60;;;;;;5042725;28;19932;-83
2022/06/30 12:36:32;;;;;;;;;;;32.90;99.30;;;;;;5043606;28;20069;-82
2022/06/30 12:39:10;;;;;;;;;;;32.80;97.80;;;;;;5062342;28;20366;-82
2022/06/30 12:41:36;;;;;;;;;;;32.90;98.10;;;;;;5040231;28;19943;-82
2022/06/30 12:44:02;;;;;;;;;;;33.00;98.30;;;;;;5040003;28;19939;-82
2022/06/30 12:46:37;;;;;;;;;;;33.00;98.00;;;;;;5040774;28;19928;-82
2022/06/30 12:49:02;;;;;;;;;;;33.20;97.40;;;;;;5040317;28;19989;-83
2022/06/30 12:51:28;;;;;;;;;;;32.70;98.50;;;;;;5040527;28;19932;-83
2022/06/30 12:53:59;;;;;;;;;;;32.70;98.10;;;;;;5059384;28;19934;-82
2022/06/30 12:56:26;;;;;;;;;;;32.40;96.40;;;;;;5042436;28;20139;-82
2022/06/30 12:59:00;;;;;;;;;;;32.50;97.10;;;;;;5057649;28;19934;-82
2022/06/30 13:01:27;;;;;;;;;;;32.50;97.30;;;;;;5044156;28;19928;-82
2022/06/30 13:03:56;;;;;;;;;;;32.30;98.80;;;;;;5038460;28;19963;-81
2022/06/30 13:06:22;;;;;;;;;;;32.50;97.90;;;;;;5041286;28;19935;-82
2022/06/30 13:08:48;;;;;;;;;;;32.90;97.40;;;;;;5060744;28;19975;-81
2022/06/30 13:11:19;;;;;;;;;;;32.70;97.10;;;;;;5019816;28;20510;-82
2022/06/30 13:13:45;;;;;;;;;;;32.90;96.70;;;;;;5039863;28;20399;-82
2022/06/30 13:16:11;;;;;;;;;;;32.80;96.80;;;;;;5016828;28;19932;-82
2022/06/30 13:18:37;;;;;;;;;;;31.90;97.70;;;;;;5009323;28;19933;-82
2022/06/30 13:21:03;;;;;;;;;;;31.60;95.60;;;;;;5002827;28;19928;-82
2022/06/30 13:23:29;;;;;;;;;;;31.30;96.70;;;;;;5014390;28;19932;-82
2022/06/30 13:25:54;;;;;;;;;;;31.20;97.00;;;;;;5037454;28;19967;-82
2022/06/30 13:28:20;;;;;;;;;;;31.10;94.90;;;;;;5015938;28;19967;-81
2022/06/30 13:30:46;;;;;;;;;;;31.40;96.50;;;;;;5015699;28;20009;-83
2022/06/30 13:33:12;;;;;;;;;;;31.20;94.20;;;;;;5024552;28;20011;-82
2022/06/30 13:35:38;;;;;;;;;;;31.30;95.50;;;;;;5013197;28;19935;-83
2022/06/30 13:38:03;;;;;;;;;;;31.10;94.60;;;;;;5004945;28;19929;-83
2022/06/30 13:40:29;;;;;;;;;;;31.40;97.40;;;;;;5027075;28;20883;-83
2022/06/30 13:42:55;;;;;;;;;;;31.20;94.90;;;;;;5035201;28;19974;-83
2022/06/30 13:45:21;;;;;;;;;;;31.10;97.30;;;;;;5031381;28;20620;-82
2022/06/30 13:47:47;;;;;;;;;;;31.10;96.00;;;;;;5023799;28;19928;-83
2022/06/30 13:50:12;;;;;;;;;;;31.20;96.00;;;;;;5021951;28;19928;-81
2022/06/30 13:52:38;;;;;;;;;;;31.20;94.50;;;;;;5017291;28;20102;-82
2022/06/30 13:55:04;;;;;;;;;;;30.90;96.60;;;;;;5018175;28;19929;-81
2022/06/30 13:57:29;;;;;;;;;;;31.20;96.30;;;;;;5020803;28;20005;-82
2022/06/30 13:59:55;;;;;;;;;;;31.50;97.90;;;;;;5019048;28;19964;-80
2022/06/30 14:02:21;;;;;;;;;;;31.30;93.20;;;;;;5022656;28;20933;-82
2022/06/30 14:04:46;;;;;;;;;;;31.40;95.80;;;;;;5029926;28;20024;-81
2022/06/30 14:07:12;;;;;;;;;;;31.20;95.50;;;;;;5032110;28;19928;-82
2022/06/30 14:09:38;;;;;;;;;;;31.40;96.60;;;;;;5029658;28;19955;-83
2022/06/30 14:12:04;;;;;;;;;;;31.50;97.50;;;;;;5009891;28;20043;-82
2022/06/30 14:14:30;;;;;;;;;;;31.40;96.80;;;;;;5030207;28;19962;-82
2022/06/30 14:16:56;;;;;;;;;;;31.50;97.70;;;;;;5033490;28;20645;-83
2022/06/30 14:19:22;;;;;;;;;;;31.30;96.80;;;;;;5014847;28;20952;-83
2022/06/30 14:21:48;;;;;;;;;;;30.90;97.70;;;;;;5015964;28;19928;-82
2022/06/30 14:24:14;;;;;;;;;;;30.80;98.00;;;;;;5015618;28;20531;-81
2022/06/30 14:26:40;;;;;;;;;;;31.00;98.90;;;;;;5014091;28;19983;-82
2022/06/30 14:29:06;;;;;;;;;;;31.20;98.30;;;;;;5013745;28;19967;-82
2022/06/30 14:31:32;;;;;;;;;;;31.00;98.30;;;;;;4994024;28;20027;-80
2022/06/30 14:33:57;;;;;;;;;;;30.60;98.50;;;;;;5011926;28;20030;-82